Aviation Digital Data Service (ADDS)

Output produced by METARs form (1551 UTC 30 September 2014)
found at http://aviationweather.gov/adds/metars/
 
KHPN 301440Z 3015/0112 10003KT 3SM BR BKN004 
     TEMPO 3016/3018 SCT004 OVC008 
     FM301800 10005KT 6SM BR OVC015 
     FM302000 09005KT P6SM BKN035 
     FM010200 05007KT P6SM BKN012 
     FM010500 04010KT P6SM OVC008 AMD NOT SKED